Time;durP1;ratioP1;P1;durP2;ratioP2;P2;SDS_P1;SDS_P2;PMS_P1;PMS_P2;Temp;Humidity;BMP_temperature;BMP_pressure;BME280_temperature;BME280_humidity;BME280_pressure;Samples;Min_cycle;Max_cycle;Signal;HPM_P1;HPM_P2
2022/01/03 00:00:53;;;;;;;5.63;1.60;;;;;;;;;;5083941;28;20047;-81
2022/01/03 00:03:19;;;;;;;3.05;1.63;;;;;;;;;;5080252;28;20029;-78
2022/01/03 00:05:44;;;;;;;2.70;1.58;;;;;;;;;;5081305;28;20039;-79
2022/01/03 00:08:10;;;;;;;7.40;1.77;;;;;;;;;;5082728;28;20474;-79
2022/01/03 00:10:35;;;;;;;5.88;1.70;;;;;;;;;;5082971;28;20085;-81
2022/01/03 00:13:03;;;;;;;4.20;1.50;;;;;;;;;;5082287;28;20099;-79
2022/01/03 00:15:28;;;;;;;2.50;1.48;;;;;;;;;;5082446;28;20020;-79
2022/01/03 00:17:54;;;;;;;3.00;1.48;;;;;;;;;;5081078;28;20082;-79
2022/01/03 00:20:21;;;;;;;6.07;1.40;;;;;;;;;;5082111;28;20053;-80
2022/01/03 00:23:07;;;;;;;3.20;1.50;;;;;;;;;;5080300;28;20035;-79
2022/01/03 00:25:36;;;;;;;3.42;1.90;;;;;;;;;;5079232;28;20034;-81
2022/01/03 00:28:11;;;;;;;3.60;1.63;;;;;;;;;;5082110;28;20016;-80
2022/01/03 00:30:38;;;;;;;4.30;1.45;;;;;;;;;;5081651;28;20017;-81
2022/01/03 00:33:04;;;;;;;3.15;1.25;;;;;;;;;;5081547;28;20025;-80
2022/01/03 00:35:33;;;;;;;4.13;1.30;;;;;;;;;;5081434;28;20055;-79
2022/01/03 00:38:00;;;;;;;1.60;1.10;;;;;;;;;;5080626;28;20028;-81
2022/01/03 00:40:26;;;;;;;2.67;1.30;;;;;;;;;;5080322;28;20028;-77
2022/01/03 00:42:51;;;;;;;3.88;1.27;;;;;;;;;;5079439;28;20496;-77
2022/01/03 00:45:17;;;;;;;3.33;1.60;;;;;;;;;;5080305;28;20028;-81
2022/01/03 00:47:44;;;;;;;2.17;1.10;;;;;;;;;;5081179;28;20028;-79
2022/01/03 00:50:13;;;;;;;5.15;1.50;;;;;;;;;;5081456;28;20386;-80
2022/01/03 00:52:38;;;;;;;3.10;1.30;;;;;;;;;;5080443;28;20024;-79
2022/01/03 00:55:05;;;;;;;3.67;1.27;;;;;;;;;;5079572;28;20504;-80
2022/01/03 00:57:59;;;;;;;2.30;1.20;;;;;;;;;;5077864;28;20486;-79
2022/01/03 01:00:26;;;;;;;2.03;1.20;;;;;;;;;;5080121;28;20067;-79
2022/01/03 01:03:05;;;;;;;2.85;1.30;;;;;;;;;;5080393;28;20448;-80
2022/01/03 01:05:32;;;;;;;3.13;1.27;;;;;;;;;;5078695;28;20066;-79
2022/01/03 01:07:58;;;;;;;2.55;1.48;;;;;;;;;;5077705;28;20029;-79
2022/01/03 01:10:32;;;;;;;2.22;1.23;;;;;;;;;;5078796;28;20032;-79
2022/01/03 01:12:58;;;;;;;1.88;0.95;;;;;;;;;;5079977;28;20028;-80
2022/01/03 01:15:26;;;;;;;6.32;1.30;;;;;;;;;;5079848;28;20032;-81
2022/01/03 01:17:53;;;;;;;4.00;1.30;;;;;;;;;;5079680;28;20031;-79
2022/01/03 01:20:20;;;;;;;3.80;1.13;;;;;;;;;;5078900;28;20051;-79
2022/01/03 01:22:46;;;;;;;2.97;1.20;;;;;;;;;;5078933;28;20048;-80
2022/01/03 01:27:52;;;;;;;2.50;1.05;;;;;;;;;;5078831;28;20453;-79
2022/01/03 01:30:20;;;;;;;2.65;1.15;;;;;;;;;;5079737;28;20086;-80
2022/01/03 01:33:06;;;;;;;3.08;1.17;;;;;;;;;;5079080;28;20039;-80
2022/01/03 01:35:50;;;;;;;3.78;1.20;;;;;;;;;;5078204;28;20047;-78
2022/01/03 01:38:18;;;;;;;4.45;1.40;;;;;;;;;;5079398;28;20020;-80
2022/01/03 01:40:47;;;;;;;2.08;1.00;;;;;;;;;;5079865;28;20024;-78
2022/01/03 01:43:14;;;;;;;4.03;1.20;;;;;;;;;;5078679;28;20074;-78
2022/01/03 01:45:42;;;;;;;7.38;1.10;;;;;;;;;;5077982;28;20023;-77
2022/01/03 01:48:11;;;;;;;1.52;0.90;;;;;;;;;;5078880;28;20028;-79
2022/01/03 01:50:39;;;;;;;1.25;0.68;;;;;;;;;;5078087;28;20077;-79
2022/01/03 01:53:05;;;;;;;1.27;0.80;;;;;;;;;;5078900;28;20024;-81
2022/01/03 01:55:31;;;;;;;1.20;0.73;;;;;;;;;;5076591;28;20493;-79
2022/01/03 01:58:29;;;;;;;1.30;0.50;;;;;;;;;;5078098;28;20020;-79
2022/01/03 02:01:06;;;;;;;2.08;0.70;;;;;;;;;;5078514;28;20078;-79
2022/01/03 02:03:55;;;;;;;2.38;0.68;;;;;;;;;;5076860;28;20029;-78
2022/01/03 02:06:20;;;;;;;0.47;0.35;;;;;;;;;;5077821;28;20024;-80
2022/01/03 02:09:06;;;;;;;0.57;0.57;;;;;;;;;;5076661;28;20024;-78
2022/01/03 02:11:53;;;;;;;0.35;0.20;;;;;;;;;;5076628;28;20028;-79
2022/01/03 02:14:20;;;;;;;1.08;0.40;;;;;;;;;;5077885;28;20028;-80
2022/01/03 02:16:45;;;;;;;1.05;0.43;;;;;;;;;;5076370;28;20083;-79
2022/01/03 02:19:11;;;;;;;0.32;0.13;;;;;;;;;;5077843;28;20044;-78
2022/01/03 02:21:37;;;;;;;2.08;0.30;;;;;;;;;;5077771;28;20032;-79
2022/01/03 02:24:03;;;;;;;0.32;0.20;;;;;;;;;;5077146;28;20024;-79
2022/01/03 02:26:29;;;;;;;0.25;0.25;;;;;;;;;;5076296;28;20028;-79
2022/01/03 02:28:54;;;;;;;0.40;0.17;;;;;;;;;;5077998;28;20042;-78
2022/01/03 02:31:21;;;;;;;0.45;0.20;;;;;;;;;;5077376;28;20024;-79
2022/01/03 02:33:47;;;;;;;0.20;0.20;;;;;;;;;;5076435;28;20401;-80
2022/01/03 02:36:12;;;;;;;0.20;0.20;;;;;;;;;;5077677;28;20021;-80
2022/01/03 02:38:37;;;;;;;2.28;0.25;;;;;;;;;;5077384;28;20028;-79
2022/01/03 02:41:03;;;;;;;1.45;0.22;;;;;;;;;;5077454;28;20493;-79
2022/01/03 02:43:28;;;;;;;0.08;0.08;;;;;;;;;;5077757;28;20062;-79
2022/01/03 02:45:53;;;;;;;1.23;0.20;;;;;;;;;;5076626;28;20481;-79
2022/01/03 02:48:21;;;;;;;1.17;0.20;;;;;;;;;;5078335;28;20024;-81
2022/01/03 02:50:46;;;;;;;0.82;0.20;;;;;;;;;;5076396;28;20031;-79
2022/01/03 02:53:12;;;;;;;1.65;0.20;;;;;;;;;;5077546;28;20099;-79
2022/01/03 02:55:38;;;;;;;0.17;0.10;;;;;;;;;;5078310;28;20141;-79
2022/01/03 02:58:07;;;;;;;0.30;0.10;;;;;;;;;;5078104;28;20130;-79
2022/01/03 03:00:36;;;;;;;0.10;0.10;;;;;;;;;;5075968;28;20067;-79
2022/01/03 03:03:03;;;;;;;1.23;0.10;;;;;;;;;;5077214;28;20017;-79
2022/01/03 03:05:29;;;;;;;1.10;0.55;;;;;;;;;;5076322;28;20094;-80
2022/01/03 03:07:54;;;;;;;0.08;0.08;;;;;;;;;;5077591;28;20025;-79
2022/01/03 03:10:22;;;;;;;0.60;0.20;;;;;;;;;;5078003;28;20477;-79
2022/01/03 03:12:47;;;;;;;1.27;0.32;;;;;;;;;;5077616;28;20070;-79
2022/01/03 03:15:14;;;;;;;0.22;0.13;;;;;;;;;;5076172;28;20025;-79
2022/01/03 03:17:41;;;;;;;4.18;0.30;;;;;;;;;;5075716;28;20067;-80
2022/01/03 03:20:08;;;;;;;0.63;0.30;;;;;;;;;;5079828;28;20035;-79
2022/01/03 03:22:34;;;;;;;3.88;0.20;;;;;;;;;;5080085;28;20033;-80
2022/01/03 03:25:05;;;;;;;0.95;0.30;;;;;;;;;;5081277;28;20506;-79
2022/01/03 03:27:30;;;;;;;1.67;0.13;;;;;;;;;;5081306;28;20031;-80
2022/01/03 03:29:57;;;;;;;1.70;0.40;;;;;;;;;;5082068;28;20052;-79
2022/01/03 03:32:25;;;;;;;0.20;0.20;;;;;;;;;;5081380;28;20055;-79
2022/01/03 03:34:50;;;;;;;0.70;0.43;;;;;;;;;;5079609;28;20028;-80
2022/01/03 03:37:16;;;;;;;0.85;0.55;;;;;;;;;;5081164;28;20029;-79
2022/01/03 03:39:43;;;;;;;0.80;0.30;;;;;;;;;;5079917;28;20031;-78
2022/01/03 03:42:10;;;;;;;3.10;0.45;;;;;;;;;;5080397;28;20032;-79
2022/01/03 03:44:35;;;;;;;1.23;0.40;;;;;;;;;;5079473;28;20025;-80
2022/01/03 03:47:03;;;;;;;1.40;0.30;;;;;;;;;;5080104;28;20016;-81
2022/01/03 03:49:28;;;;;;;1.23;0.30;;;;;;;;;;5082112;28;20028;-79
2022/01/03 03:51:54;;;;;;;1.23;0.35;;;;;;;;;;5080893;28;20021;-78
2022/01/03 03:54:19;;;;;;;0.25;0.25;;;;;;;;;;5081887;28;20024;-78
2022/01/03 03:56:44;;;;;;;0.60;0.32;;;;;;;;;;5080852;28;20024;-78
2022/01/03 03:59:10;;;;;;;0.82;0.30;;;;;;;;;;5080765;28;20025;-76
2022/01/03 04:01:35;;;;;;;2.92;0.77;;;;;;;;;;5080672;28;20500;-79
2022/01/03 04:04:00;;;;;;;0.85;0.40;;;;;;;;;;5081755;28;20028;-79
2022/01/03 04:06:26;;;;;;;2.45;0.60;;;;;;;;;;5081169;28;20028;-79
2022/01/03 04:08:51;;;;;;;1.65;0.70;;;;;;;;;;5081214;28;20025;-78
2022/01/03 04:11:17;;;;;;;1.30;0.45;;;;;;;;;;5080373;28;20514;-78
2022/01/03 04:13:43;;;;;;;2.15;0.50;;;;;;;;;;5080465;28;20052;-79
2022/01/03 04:16:08;;;;;;;0.77;0.40;;;;;;;;;;5079857;28;20020;-78
2022/01/03 04:18:34;;;;;;;2.63;0.50;;;;;;;;;;5081577;28;20051;-77
2022/01/03 04:20:59;;;;;;;0.38;0.38;;;;;;;;;;5079859;28;20113;-79
2022/01/03 04:23:25;;;;;;;1.13;0.40;;;;;;;;;;5081186;28;20032;-77
2022/01/03 04:25:53;;;;;;;0.90;0.38;;;;;;;;;;5080630;28;20110;-78
2022/01/03 04:28:19;;;;;;;0.85;0.32;;;;;;;;;;5081318;28;20031;-79
2022/01/03 04:30:44;;;;;;;0.95;0.50;;;;;;;;;;5078981;28;20389;-79
2022/01/03 04:33:10;;;;;;;0.95;0.47;;;;;;;;;;5080340;28;20031;-79
2022/01/03 04:35:38;;;;;;;1.48;0.50;;;;;;;;;;5080692;28;20048;-79
2022/01/03 04:38:03;;;;;;;1.25;0.30;;;;;;;;;;5079492;28;20107;-79
2022/01/03 04:40:29;;;;;;;1.15;0.43;;;;;;;;;;5079845;28;20486;-79
2022/01/03 04:42:55;;;;;;;0.90;0.30;;;;;;;;;;5080922;28;20047;-80
2022/01/03 04:45:20;;;;;;;0.80;0.47;;;;;;;;;;5079158;28;20397;-80
2022/01/03 04:47:45;;;;;;;2.97;0.60;;;;;;;;;;5079892;28;20486;-79
2022/01/03 04:50:11;;;;;;;0.90;0.52;;;;;;;;;;5080800;28;20102;-79
2022/01/03 04:52:36;;;;;;;1.55;0.50;;;;;;;;;;5081023;28;20067;-79
2022/01/03 04:55:01;;;;;;;0.80;0.52;;;;;;;;;;5080297;28;20063;-79
2022/01/03 04:57:27;;;;;;;0.80;0.38;;;;;;;;;;5078020;28;20025;-78
2022/01/03 04:59:52;;;;;;;0.50;0.40;;;;;;;;;;5080637;28;20025;-80
2022/01/03 05:02:17;;;;;;;0.68;0.38;;;;;;;;;;5080515;28;20490;-79
2022/01/03 05:04:43;;;;;;;1.65;0.75;;;;;;;;;;5081156;28;20021;-79
2022/01/03 05:07:08;;;;;;;1.13;0.38;;;;;;;;;;5080231;28;20161;-80
2022/01/03 05:09:34;;;;;;;0.98;0.50;;;;;;;;;;5080489;28;20033;-77
2022/01/03 05:12:00;;;;;;;1.10;0.50;;;;;;;;;;5080041;28;20028;-80
2022/01/03 05:14:25;;;;;;;1.27;0.55;;;;;;;;;;5080805;28;20111;-80
2022/01/03 05:16:52;;;;;;;2.72;0.60;;;;;;;;;;5080239;28;20036;-79
2022/01/03 05:19:17;;;;;;;1.65;0.55;;;;;;;;;;5080167;28;20029;-79
2022/01/03 05:21:42;;;;;;;0.47;0.32;;;;;;;;;;5078719;28;20031;-81
2022/01/03 05:24:07;;;;;;;1.33;0.70;;;;;;;;;;5080334;28;20027;-78
2022/01/03 05:26:33;;;;;;;5.35;0.77;;;;;;;;;;5079997;28;20062;-81
2022/01/03 05:28:58;;;;;;;0.60;0.40;;;;;;;;;;5079767;28;20029;-80
2022/01/03 05:31:23;;;;;;;0.55;0.40;;;;;;;;;;5079218;28;20024;-79
2022/01/03 05:33:48;;;;;;;1.23;0.55;;;;;;;;;;5077378;28;20043;-80
2022/01/03 05:36:14;;;;;;;2.53;0.60;;;;;;;;;;5079715;28;20027;-81
2022/01/03 05:38:39;;;;;;;1.10;0.50;;;;;;;;;;5077980;28;20055;-79
2022/01/03 05:41:04;;;;;;;5.72;0.70;;;;;;;;;;5080055;28;20017;-79
2022/01/03 05:43:29;;;;;;;2.72;0.60;;;;;;;;;;5077939;28;20028;-79
2022/01/03 05:45:55;;;;;;;3.17;0.60;;;;;;;;;;5079721;28;20029;-80
2022/01/03 05:48:20;;;;;;;0.95;0.70;;;;;;;;;;5080389;28;20024;-79
2022/01/03 05:50:45;;;;;;;0.52;0.50;;;;;;;;;;5079039;28;20466;-80
2022/01/03 05:53:10;;;;;;;3.58;0.60;;;;;;;;;;5080903;28;20020;-80
2022/01/03 05:55:36;;;;;;;3.33;0.88;;;;;;;;;;5080193;28;20028;-79
2022/01/03 05:58:01;;;;;;;2.03;0.43;;;;;;;;;;5079437;28;20028;-80
2022/01/03 06:00:27;;;;;;;2.87;0.70;;;;;;;;;;5079243;28;20256;-80
2022/01/03 06:02:55;;;;;;;1.42;0.60;;;;;;;;;;5077008;28;20835;-79
2022/01/03 06:06:32;;;;;;;2.97;0.88;;;;;;;;;;5079333;28;20028;-79
2022/01/03 06:08:16;;;;;;;2.13;0.70;;;;;;;;;;5065421;28;20036;-80
2022/01/03 06:10:41;;;;;;;1.67;0.60;;;;;;;;;;5079636;28;20048;-80
2022/01/03 06:13:07;;;;;;;3.45;1.10;;;;;;;;;;5077976;28;20681;-79
2022/01/03 06:15:32;;;;;;;2.33;1.00;;;;;;;;;;5079556;28;20027;-80
2022/01/03 06:17:57;;;;;;;1.90;0.68;;;;;;;;;;5079837;28;20021;-80
2022/01/03 06:20:23;;;;;;;3.83;1.02;;;;;;;;;;5078806;28;20044;-80
2022/01/03 06:22:48;;;;;;;5.45;1.13;;;;;;;;;;5079968;28;20031;-80
2022/01/03 06:25:13;;;;;;;6.95;1.00;;;;;;;;;;5077940;28;20028;-79
2022/01/03 06:27:38;;;;;;;3.28;0.95;;;;;;;;;;5039331;28;1094657;-78
2022/01/03 06:30:05;;;;;;;2.50;0.85;;;;;;;;;;5078961;28;20402;-78
2022/01/03 06:32:31;;;;;;;6.22;1.10;;;;;;;;;;5078092;28;20032;-79
2022/01/03 06:34:56;;;;;;;5.60;1.05;;;;;;;;;;5078832;28;20040;-81
2022/01/03 06:37:21;;;;;;;4.20;1.05;;;;;;;;;;5078188;28;20025;-79
2022/01/03 06:39:47;;;;;;;6.43;1.00;;;;;;;;;;5078313;28;20035;-79
2022/01/03 06:42:12;;;;;;;3.63;0.80;;;;;;;;;;5078558;28;20023;-80
2022/01/03 06:44:37;;;;;;;3.65;1.15;;;;;;;;;;5077176;28;20146;-79
2022/01/03 06:47:03;;;;;;;2.72;1.00;;;;;;;;;;5077406;28;20024;-79
2022/01/03 06:49:28;;;;;;;4.35;1.00;;;;;;;;;;5077217;28;20043;-78
2022/01/03 06:51:53;;;;;;;3.73;0.80;;;;;;;;;;5077153;28;20036;-80
2022/01/03 06:54:18;;;;;;;6.05;1.00;;;;;;;;;;5078786;28;20340;-79
2022/01/03 06:56:44;;;;;;;3.47;1.15;;;;;;;;;;5080760;28;20017;-81
2022/01/03 06:59:09;;;;;;;3.08;0.93;;;;;;;;;;5082071;28;20025;-79
2022/01/03 07:01:35;;;;;;;3.65;0.93;;;;;;;;;;5081887;28;20102;-80
2022/01/03 07:04:00;;;;;;;1.77;0.90;;;;;;;;;;5080437;28;20024;-80
2022/01/03 07:06:25;;;;;;;4.13;1.08;;;;;;;;;;5082567;28;20375;-80
2022/01/03 07:08:51;;;;;;;3.63;0.80;;;;;;;;;;5081398;28;20047;-80
2022/01/03 07:11:16;;;;;;;3.40;0.90;;;;;;;;;;5083327;28;20028;-79
2022/01/03 07:13:46;;;;;;;5.22;0.88;;;;;;;;;;5082652;28;20029;-80
2022/01/03 07:18:56;;;;;;;5.55;1.23;;;;;;;;;;5082194;28;20397;-78
2022/01/03 07:21:22;;;;;;;5.80;0.98;;;;;;;;;;5080899;28;20497;-78
2022/01/03 07:23:48;;;;;;;4.80;0.90;;;;;;;;;;5081938;28;20032;-81
2022/01/03 07:26:13;;;;;;;3.70;1.00;;;;;;;;;;5081068;28;20059;-79
2022/01/03 07:28:38;;;;;;;1.38;0.70;;;;;;;;;;5082589;28;20084;-80
2022/01/03 07:31:04;;;;;;;2.60;0.90;;;;;;;;;;5081810;28;20380;-78
2022/01/03 07:33:29;;;;;;;5.38;0.82;;;;;;;;;;5080486;28;20024;-78
2022/01/03 07:35:54;;;;;;;1.70;0.67;;;;;;;;;;5081025;28;20020;-79
2022/01/03 07:38:19;;;;;;;3.08;1.00;;;;;;;;;;5079659;28;20626;-77
2022/01/03 07:40:45;;;;;;;1.97;0.60;;;;;;;;;;5081880;28;20032;-77
2022/01/03 07:43:10;;;;;;;4.07;0.80;;;;;;;;;;5081986;28;20257;-78
2022/01/03 07:45:35;;;;;;;4.50;1.08;;;;;;;;;;5082394;28;20016;-79
2022/01/03 07:48:01;;;;;;;1.75;0.60;;;;;;;;;;5081485;28;20024;-79
2022/01/03 07:50:26;;;;;;;3.25;0.52;;;;;;;;;;5081158;28;20021;-79
2022/01/03 07:52:52;;;;;;;5.20;0.90;;;;;;;;;;5081691;28;20024;-78
2022/01/03 07:55:19;;;;;;;7.30;0.85;;;;;;;;;;5081588;28;20035;-77
2022/01/03 07:57:45;;;;;;;4.57;1.00;;;;;;;;;;5080064;28;20032;-81
2022/01/03 08:00:14;;;;;;;5.47;0.82;;;;;;;;;;5081798;28;20028;-78
2022/01/03 08:02:41;;;;;;;3.63;0.80;;;;;;;;;;5079721;28;20024;-79
2022/01/03 08:05:08;;;;;;;5.05;0.90;;;;;;;;;;5079336;28;20059;-79
2022/01/03 08:07:34;;;;;;;4.63;0.80;;;;;;;;;;5080191;28;20451;-79
2022/01/03 08:10:00;;;;;;;2.05;0.70;;;;;;;;;;5078863;28;20056;-79
2022/01/03 08:12:25;;;;;;;3.40;0.70;;;;;;;;;;5081212;28;20020;-81
2022/01/03 08:14:50;;;;;;;1.97;0.80;;;;;;;;;;5080382;28;20031;-80
2022/01/03 08:17:15;;;;;;;4.83;0.90;;;;;;;;;;5080335;28;20281;-78
2022/01/03 08:19:40;;;;;;;3.10;1.13;;;;;;;;;;5078873;28;20245;-78
2022/01/03 08:22:06;;;;;;;2.38;0.85;;;;;;;;;;5080930;28;20264;-81
2022/01/03 08:24:31;;;;;;;3.30;1.00;;;;;;;;;;5080560;28;20026;-78
2022/01/03 08:26:56;;;;;;;4.95;1.02;;;;;;;;;;5081008;28;20035;-81
2022/01/03 08:29:22;;;;;;;3.50;0.77;;;;;;;;;;5079218;28;20119;-79
2022/01/03 08:31:47;;;;;;;3.70;1.00;;;;;;;;;;5079029;28;20083;-78
2022/01/03 08:34:12;;;;;;;3.70;0.90;;;;;;;;;;5079945;28;20029;-79
2022/01/03 08:36:37;;;;;;;4.60;0.80;;;;;;;;;;5081142;28;20028;-78
2022/01/03 08:39:04;;;;;;;4.60;1.15;;;;;;;;;;5079055;28;20024;-79
2022/01/03 08:41:29;;;;;;;5.05;1.10;;;;;;;;;;5080775;28;20036;-78
2022/01/03 08:43:54;;;;;;;4.20;1.03;;;;;;;;;;5079452;28;20029;-78
2022/01/03 08:46:19;;;;;;;5.05;0.90;;;;;;;;;;5080024;28;20246;-80
2022/01/03 08:48:45;;;;;;;5.95;1.10;;;;;;;;;;5079687;28;20027;-79
2022/01/03 08:51:11;;;;;;;7.40;1.30;;;;;;;;;;5080079;28;20048;-81
2022/01/03 08:53:36;;;;;;;3.78;0.88;;;;;;;;;;5079758;28;20107;-78
2022/01/03 08:56:02;;;;;;;3.67;1.10;;;;;;;;;;5079128;28;20489;-80
2022/01/03 08:58:28;;;;;;;3.50;0.65;;;;;;;;;;5080937;28;20063;-80
2022/01/03 09:00:54;;;;;;;3.25;0.98;;;;;;;;;;5078816;28;20036;-81
2022/01/03 09:03:19;;;;;;;7.10;1.13;;;;;;;;;;5079774;28;20064;-80
2022/01/03 09:05:45;;;;;;;1.98;0.90;;;;;;;;;;5079933;28;20028;-80
2022/01/03 09:08:11;;;;;;;4.95;1.02;;;;;;;;;;5080478;28;20103;-79
2022/01/03 09:10:37;;;;;;;4.50;1.23;;;;;;;;;;5079328;28;20056;-79
2022/01/03 09:13:02;;;;;;;5.35;1.00;;;;;;;;;;5080621;28;20070;-80
2022/01/03 09:15:28;;;;;;;5.07;0.90;;;;;;;;;;5081637;28;20059;-80
2022/01/03 09:17:53;;;;;;;5.00;1.00;;;;;;;;;;5081187;28;20032;-79
2022/01/03 09:20:19;;;;;;;6.10;1.10;;;;;;;;;;5080511;28;20032;-80
2022/01/03 09:22:48;;;;;;;3.35;1.00;;;;;;;;;;5081055;28;20043;-81
2022/01/03 09:30:28;;;;;;;2.22;0.80;;;;;;;;;;5079112;28;20071;-79
2022/01/03 09:32:53;;;;;;;6.35;1.10;;;;;;;;;;5079230;28;20028;-79
2022/01/03 09:35:19;;;;;;;8.30;1.60;;;;;;;;;;5076985;28;20397;-81
2022/01/03 09:37:44;;;;;;;3.00;1.05;;;;;;;;;;5078959;28;20040;-80
2022/01/03 09:40:09;;;;;;;7.65;1.27;;;;;;;;;;5080099;28;20020;-80
2022/01/03 09:42:35;;;;;;;8.50;1.27;;;;;;;;;;5080869;28;20029;-80
2022/01/03 09:45:04;;;;;;;4.18;1.05;;;;;;;;;;5081286;28;20028;-81
2022/01/03 09:47:31;;;;;;;4.88;0.95;;;;;;;;;;5081220;28;20036;-79
2022/01/03 09:49:58;;;;;;;4.35;0.93;;;;;;;;;;5080197;28;20027;-81
2022/01/03 09:52:25;;;;;;;9.38;1.20;;;;;;;;;;5080368;28;20026;-80
2022/01/03 09:54:50;;;;;;;7.25;1.08;;;;;;;;;;5079681;28;20442;-79
2022/01/03 09:57:19;;;;;;;5.90;1.20;;;;;;;;;;5081539;28;20059;-80
2022/01/03 09:59:45;;;;;;;5.18;1.10;;;;;;;;;;5081801;28;20024;-80
2022/01/03 10:02:13;;;;;;;3.35;0.90;;;;;;;;;;5081017;28;20121;-80
2022/01/03 10:04:39;;;;;;;3.88;0.80;;;;;;;;;;5079554;28;20017;-81
2022/01/03 10:07:08;;;;;;;3.22;0.90;;;;;;;;;;5080317;28;20086;-79
2022/01/03 10:09:33;;;;;;;4.50;1.10;;;;;;;;;;5079583;28;20050;-81
2022/01/03 10:11:59;;;;;;;7.05;1.10;;;;;;;;;;5078804;28;20040;-79
2022/01/03 10:14:24;;;;;;;6.97;0.90;;;;;;;;;;5078459;28;20108;-79
2022/01/03 10:16:50;;;;;;;8.93;1.05;;;;;;;;;;5078205;28;20028;-80
2022/01/03 10:19:16;;;;;;;5.13;1.00;;;;;;;;;;5080754;28;20025;-80
2022/01/03 10:21:44;;;;;;;5.82;0.85;;;;;;;;;;5080391;28;20024;-80
2022/01/03 10:24:11;;;;;;;4.40;1.40;;;;;;;;;;5079486;28;20036;-79
2022/01/03 10:26:38;;;;;;;4.30;0.95;;;;;;;;;;5077978;28;20050;-80
2022/01/03 10:29:33;;;;;;;7.78;1.10;;;;;;;;;;5079422;28;20050;-79
2022/01/03 10:32:23;;;;;;;3.05;0.98;;;;;;;;;;5065895;28;20058;-81
2022/01/03 10:34:52;;;;;;;2.75;0.82;;;;;;;;;;5079511;28;20029;-80
2022/01/03 10:37:18;;;;;;;4.70;0.90;;;;;;;;;;5079943;28;20482;-81
2022/01/03 10:39:44;;;;;;;4.55;1.02;;;;;;;;;;5080884;28;20077;-81
2022/01/03 10:42:14;;;;;;;3.33;1.10;;;;;;;;;;5080471;28;20147;-80
2022/01/03 10:44:42;;;;;;;3.90;0.98;;;;;;;;;;5080745;28;20055;-81
2022/01/03 10:47:10;;;;;;;3.10;0.75;;;;;;;;;;5080392;28;20076;-82
2022/01/03 10:49:38;;;;;;;4.43;0.85;;;;;;;;;;5078663;28;20108;-81
2022/01/03 10:52:31;;;;;;;6.30;1.00;;;;;;;;;;5079520;28;20051;-81
2022/01/03 10:55:21;;;;;;;5.03;1.20;;;;;;;;;;5075184;28;20055;-81
2022/01/03 10:57:49;;;;;;;3.67;0.88;;;;;;;;;;5079199;28;20021;-81
2022/01/03 11:00:39;;;;;;;4.68;0.90;;;;;;;;;;5078989;28;20021;-79
2022/01/03 11:03:37;;;;;;;5.32;0.93;;;;;;;;;;5078221;28;20029;-81
2022/01/03 11:06:21;;;;;;;4.72;0.82;;;;;;;;;;5079867;28;20385;-80
2022/01/03 11:11:36;;;;;;;;;;;;;;;;;;5078236;28;20035;-81
2022/01/03 11:14:02;;;;;;;2.38;0.88;;;;;;;;;;5077315;28;20433;-80
2022/01/03 11:16:33;;;;;;;6.13;0.93;;;;;;;;;;5077871;28;20032;-81
2022/01/03 11:19:02;;;;;;;4.85;1.10;;;;;;;;;;5077548;28;20024;-80
2022/01/03 11:21:28;;;;;;;7.72;1.10;;;;;;;;;;5077932;28;20031;-80
2022/01/03 11:24:11;;;;;;;3.13;0.73;;;;;;;;;;5076472;28;20029;-79
2022/01/03 11:26:47;;;;;;;3.67;1.02;;;;;;;;;;5078052;28;20025;-80
2022/01/03 11:29:14;;;;;;;2.33;0.60;;;;;;;;;;5077616;28;20028;-80
2022/01/03 11:31:40;;;;;;;3.30;0.90;;;;;;;;;;5077821;28;20104;-80
2022/01/03 11:34:10;;;;;;;6.28;0.85;;;;;;;;;;5077095;28;20020;-80
2022/01/03 11:36:38;;;;;;;2.17;0.82;;;;;;;;;;5077292;28;20470;-80
2022/01/03 11:39:08;;;;;;;5.25;0.90;;;;;;;;;;5076231;28;20028;-80
2022/01/03 11:41:43;;;;;;;6.07;0.93;;;;;;;;;;5080251;28;20383;-82
2022/01/03 11:44:12;;;;;;;1.35;0.55;;;;;;;;;;5082459;28;20025;-78
2022/01/03 11:46:38;;;;;;;4.45;1.00;;;;;;;;;;5081598;28;20017;-80
2022/01/03 11:49:03;;;;;;;3.60;0.80;;;;;;;;;;5081956;28;20032;-81
2022/01/03 11:51:33;;;;;;;4.03;0.95;;;;;;;;;;5081985;28;20134;-81
2022/01/03 11:54:01;;;;;;;5.07;1.20;;;;;;;;;;5080691;28;20024;-80
2022/01/03 11:56:29;;;;;;;4.50;0.95;;;;;;;;;;5080741;28;20039;-79
2022/01/03 12:04:29;;;;;;;5.60;0.90;;;;;;;;;;5082342;28;21550;-80
2022/01/03 12:07:27;;;;;;;3.88;0.77;;;;;;;;;;5080803;28;20021;-79
2022/01/03 12:10:07;;;;;;;12.57;1.10;;;;;;;;;;5059651;28;20040;-80
2022/01/03 12:12:38;;;;;;;5.28;1.10;;;;;;;;;;5082594;28;20046;-80
2022/01/03 12:15:35;;;;;;;4.65;0.80;;;;;;;;;;5079425;28;20016;-81
2022/01/03 12:18:00;;;;;;;4.78;1.00;;;;;;;;;;5081127;28;20079;-81
2022/01/03 12:20:45;;;;;;;1.92;0.52;;;;;;;;;;5082475;28;20025;-79
2022/01/03 12:23:38;;;;;;;2.88;0.68;;;;;;;;;;5079077;28;20029;-80
2022/01/03 12:26:23;;;;;;;3.72;0.93;;;;;;;;;;5080601;28;20123;-79
2022/01/03 12:29:08;;;;;;;1.80;0.73;;;;;;;;;;5081111;28;20449;-81
2022/01/03 12:32:01;;;;;;;3.95;1.15;;;;;;;;;;5081321;28;20056;-79
2022/01/03 12:34:27;;;;;;;4.13;0.60;;;;;;;;;;5081007;28;20056;-80
2022/01/03 12:37:19;;;;;;;2.08;0.80;;;;;;;;;;5080333;28;20027;-80
2022/01/03 12:40:04;;;;;;;2.95;0.93;;;;;;;;;;5079844;28;20025;-79
2022/01/03 12:42:48;;;;;;;2.10;0.55;;;;;;;;;;5080010;28;20032;-81
2022/01/03 12:45:46;;;;;;;4.10;0.95;;;;;;;;;;5082047;28;20024;-78
2022/01/03 12:48:12;;;;;;;3.72;0.90;;;;;;;;;;5078820;28;20028;-79
2022/01/03 12:50:39;;;;;;;9.10;0.90;;;;;;;;;;5078926;28;20025;-80
2022/01/03 12:53:06;;;;;;;5.68;0.95;;;;;;;;;;5079517;28;20610;-80
2022/01/03 12:55:37;;;;;;;3.47;0.93;;;;;;;;;;5080284;28;20024;-80
2022/01/03 12:58:18;;;;;;;3.90;0.93;;;;;;;;;;5079717;28;20025;-81
2022/01/03 13:00:56;;;;;;;3.63;0.88;;;;;;;;;;5080487;28;20398;-80
2022/01/03 13:03:39;;;;;;;5.75;0.95;;;;;;;;;;5080604;28;20025;-81
2022/01/03 13:06:24;;;;;;;5.55;1.00;;;;;;;;;;5079072;28;20016;-80
2022/01/03 13:08:55;;;;;;;5.88;1.00;;;;;;;;;;5080761;28;20035;-79
2022/01/03 13:11:24;;;;;;;5.43;1.00;;;;;;;;;;5077747;28;20024;-80
2022/01/03 13:13:55;;;;;;;2.35;0.82;;;;;;;;;;5078291;28;20047;-79
2022/01/03 13:16:29;;;;;;;2.22;0.75;;;;;;;;;;5080011;28;20024;-79
2022/01/03 13:18:58;;;;;;;;;;;;;;;;;;5081322;28;20543;-81
2022/01/03 13:21:25;;;;;;;3.60;1.05;;;;;;;;;;5077554;28;19908;-79
2022/01/03 13:23:52;;;;;;;1.13;0.52;;;;;;;;;;5078041;28;20549;-79
2022/01/03 13:26:18;;;;;;;4.05;0.85;;;;;;;;;;5078160;28;20029;-79
2022/01/03 13:28:45;;;;;;;4.38;0.93;;;;;;;;;;5077640;28;20027;-80
2022/01/03 13:31:10;;;;;;;4.47;0.90;;;;;;;;;;5076669;28;20508;-80
2022/01/03 13:33:36;;;;;;;2.47;0.68;;;;;;;;;;5077637;28;20028;-79
2022/01/03 13:36:05;;;;;;;3.08;0.75;;;;;;;;;;5075403;28;20039;-78
2022/01/03 13:38:32;;;;;;;2.75;0.75;;;;;;;;;;5075623;28;20016;-79
2022/01/03 13:41:15;;;;;;;3.65;1.00;;;;;;;;;;5076634;28;20115;-78
2022/01/03 13:43:47;;;;;;;3.87;0.93;;;;;;;;;;5078113;28;20036;-78
2022/01/03 13:49:21;;;;;;;3.78;0.80;;;;;;;;;;5078334;28;20027;-81
2022/01/03 13:51:55;;;;;;;4.43;0.88;;;;;;;;;;5078470;28;20103;-80
2022/01/03 13:54:29;;;;;;;3.53;0.80;;;;;;;;;;5077021;28;20031;-80
2022/01/03 13:56:57;;;;;;;6.53;1.15;;;;;;;;;;5078033;28;20511;-78
2022/01/03 13:59:24;;;;;;;5.15;1.20;;;;;;;;;;5077273;28;20064;-78
2022/01/03 14:01:50;;;;;;;2.50;1.02;;;;;;;;;;5077921;28;20020;-79
2022/01/03 14:04:17;;;;;;;3.55;1.27;;;;;;;;;;5076854;28;20391;-80
2022/01/03 14:06:42;;;;;;;4.22;1.55;;;;;;;;;;5077570;28;20118;-80
2022/01/03 14:09:18;;;;;;;4.25;0.95;;;;;;;;;;5078442;28;20025;-77
2022/01/03 14:11:44;;;;;;;4.85;0.93;;;;;;;;;;5076012;28;20020;-79
2022/01/03 14:14:14;;;;;;;4.32;1.25;;;;;;;;;;5076852;28;20124;-78
2022/01/03 14:16:56;;;;;;;6.13;1.00;;;;;;;;;;5074374;28;20036;-79
2022/01/03 14:19:26;;;;;;;4.00;1.13;;;;;;;;;;5076711;28;20024;-79
2022/01/03 14:21:51;;;;;;;2.67;0.95;;;;;;;;;;5076468;28;20024;-79
2022/01/03 14:24:18;;;;;;;2.17;0.70;;;;;;;;;;5076371;28;20107;-80
2022/01/03 14:26:55;;;;;;;4.05;0.80;;;;;;;;;;5075745;28;20020;-78
2022/01/03 14:29:20;;;;;;;7.15;1.00;;;;;;;;;;5075993;28;20050;-79
2022/01/03 14:31:57;;;;;;;2.90;0.98;;;;;;;;;;5075423;28;20024;-81
2022/01/03 14:34:24;;;;;;;3.15;0.90;;;;;;;;;;5075307;28;20082;-78
2022/01/03 14:36:51;;;;;;;2.78;0.90;;;;;;;;;;5075246;28;20017;-80
2022/01/03 14:39:16;;;;;;;3.38;1.20;;;;;;;;;;5075907;28;20028;-80
2022/01/03 14:41:42;;;;;;;3.13;0.98;;;;;;;;;;5075559;28;20112;-79
2022/01/03 14:44:09;;;;;;;4.80;0.90;;;;;;;;;;5075072;28;20115;-79
2022/01/03 14:46:44;;;;;;;4.13;1.52;;;;;;;;;;5074484;28;20020;-80
2022/01/03 14:49:19;;;;;;;5.20;1.00;;;;;;;;;;5074882;28;20029;-79
2022/01/03 14:51:46;;;;;;;2.72;1.00;;;;;;;;;;5074798;28;20107;-79
2022/01/03 14:54:17;;;;;;;6.63;0.90;;;;;;;;;;5074894;28;20028;-79
2022/01/03 14:56:44;;;;;;;3.45;0.75;;;;;;;;;;5073027;28;20029;-80
2022/01/03 14:59:17;;;;;;;3.40;0.90;;;;;;;;;;5074979;28;20020;-79
2022/01/03 15:01:46;;;;;;;4.05;1.10;;;;;;;;;;5074826;28;20058;-79
2022/01/03 15:04:12;;;;;;;7.70;1.10;;;;;;;;;;5073113;28;20101;-80
2022/01/03 15:06:38;;;;;;;6.47;1.23;;;;;;;;;;5074460;28;20097;-79
2022/01/03 15:09:03;;;;;;;5.93;1.30;;;;;;;;;;5072995;28;20473;-80
2022/01/03 15:11:29;;;;;;;2.78;0.98;;;;;;;;;;5074950;28;20025;-79
2022/01/03 15:13:54;;;;;;;6.10;0.95;;;;;;;;;;5074624;28;20367;-80